< < Back
Terminal Aerodrome Forecast


Current Version              Previous Versions:   1  2  3  4  5  6  7  8  9  

Terminal Aerodrome Forecast

073
FTUS44 KBMX 011130
TAFBHM
TAF
KBHM 011130Z 0112/0212 24004KT P6SM OVC012
     FM011500 25007KT P6SM SCT025
     FM011800 26009KT P6SM VCTS BKN040CB
     FM020200 24005KT P6SM OVC200=

Latest METAR

297
SAUS70 KWBC 011900 RRL
MTRBHM
METAR KBHM 011853Z 23012KT 10SM SCT030 BKN250 31/22 A3004 RMK AO2 LTG
DSNT W-N SLP162 T03110217


USA.gov is the U.S. government's official web portal to all federal, state and local government web resources and services.